Time;durP1;ratioP1;P1;durP2;ratioP2;P2;SDS_P1;SDS_P2;PMS_P1;PMS_P2;Temp;Humidity;BMP_temperature;BMP_pressure;BME280_temperature;BME280_humidity;BME280_pressure;Samples;Min_cycle;Max_cycle;Signal;HPM_P1;HPM_P2
2022/06/23 00:00:27;;;;;;;;;;;19.70;88.50;;;;;;6038055;23;20460;-79
2022/06/23 00:02:55;;;;;;;;;;;19.70;88.50;;;;;;6024364;23;19973;-80
2022/06/23 00:05:24;;;;;;;;;;;19.70;88.60;;;;;;6037467;23;19993;-79
2022/06/23 00:07:52;;;;;;;;;;;19.70;88.70;;;;;;6037176;23;19930;-80
2022/06/23 00:10:47;;;;;;;;;;;19.70;88.80;;;;;;6037775;23;20263;-80
2022/06/23 00:13:22;;;;;;;;;;;19.80;88.70;;;;;;6061920;23;19948;-81
2022/06/23 00:15:50;;;;;;;;;;;19.80;88.50;;;;;;6067334;23;19928;-80
2022/06/23 00:18:18;;;;;;;;;;;19.80;88.50;;;;;;6065878;23;19992;-81
2022/06/23 00:20:48;;;;;;;;;;;19.80;88.30;;;;;;6061866;23;20263;-80
2022/06/23 00:23:27;;;;;;;;;;;19.80;88.20;;;;;;6066332;23;19949;-79
2022/06/23 00:26:01;;;;;;;;;;;19.80;88.00;;;;;;6060928;23;19922;-80
2022/06/23 00:28:37;;;;;;;;;;;19.70;88.00;;;;;;6066068;23;19928;-79
2022/06/23 00:31:06;;;;;;;;;;;19.70;88.90;;;;;;6065444;23;19925;-79
2022/06/23 00:33:44;;;;;;;;;;;19.80;87.90;;;;;;6061317;23;19969;-79
2022/06/23 00:36:34;;;;;;;;;;;19.70;87.70;;;;;;6087404;23;19930;-80
2022/06/23 00:39:02;;;;;;;;;;;19.70;87.80;;;;;;6065976;23;19945;-80
2022/06/23 00:41:31;;;;;;;;;;;19.70;87.80;;;;;;6061037;23;19926;-79
2022/06/23 00:44:02;;;;;;;;;;;19.70;87.70;;;;;;6085666;23;19977;-80
2022/06/23 00:46:31;;;;;;;;;;;19.70;87.70;;;;;;6070933;23;20306;-79
2022/06/23 00:49:22;;;;;;;;;;;19.70;87.70;;;;;;6070021;23;19948;-80
2022/06/23 00:51:51;;;;;;;;;;;19.70;87.40;;;;;;6071054;23;19976;-80
2022/06/23 00:54:28;;;;;;;;;;;19.70;87.20;;;;;;6069903;23;19921;-80
2022/06/23 00:57:01;;;;;;;;;;;19.60;87.30;;;;;;6070053;23;20231;-80
2022/06/23 00:59:38;;;;;;;;;;;19.70;87.20;;;;;;6070947;23;20305;-80
2022/06/23 01:02:08;;;;;;;;;;;19.60;87.20;;;;;;6070393;23;20417;-79
2022/06/23 01:04:48;;;;;;;;;;;19.60;86.80;;;;;;6071246;23;20346;-79
2022/06/23 01:07:20;;;;;;;;;;;19.60;86.80;;;;;;6069715;23;20335;-79
2022/06/23 01:09:50;;;;;;;;;;;19.60;86.40;;;;;;6094144;23;19933;-78
2022/06/23 01:12:17;;;;;;;;;;;19.60;86.20;;;;;;6092951;23;20263;-79
2022/06/23 01:14:55;;;;;;;;;;;19.60;86.10;;;;;;6094656;23;20365;-79
2022/06/23 01:17:27;;;;;;;;;;;19.60;86.20;;;;;;6098784;23;19967;-79
2022/06/23 01:20:03;;;;;;;;;;;19.60;86.00;;;;;;6073419;23;20247;-79
2022/06/23 01:22:33;;;;;;;;;;;19.60;85.90;;;;;;6118859;23;20199;-79
2022/06/23 01:25:15;;;;;;;;;;;19.60;85.80;;;;;;6117654;23;19921;-79
2022/06/23 01:27:57;;;;;;;;;;;19.60;85.90;;;;;;6118444;23;19953;-79
2022/06/23 01:30:26;;;;;;;;;;;19.60;85.80;;;;;;6098713;23;20286;-79
2022/06/23 01:33:06;;;;;;;;;;;19.60;85.90;;;;;;6100359;23;20284;-79
2022/06/23 01:35:40;;;;;;;;;;;19.50;85.90;;;;;;6098451;23;19925;-79
2022/06/23 01:38:10;;;;;;;;;;;19.50;85.80;;;;;;6099674;23;19926;-78
2022/06/23 01:40:46;;;;;;;;;;;19.50;85.90;;;;;;6098551;23;19984;-78
2022/06/23 01:43:18;;;;;;;;;;;19.50;85.90;;;;;;6074392;23;20263;-79
2022/06/23 01:45:59;;;;;;;;;;;19.50;85.90;;;;;;6094106;23;20339;-78
2022/06/23 01:48:51;;;;;;;;;;;19.50;85.80;;;;;;6093027;23;19921;-78
2022/06/23 01:51:20;;;;;;;;;;;19.40;85.80;;;;;;6070127;23;19933;-79
2022/06/23 01:53:48;;;;;;;;;;;19.40;85.80;;;;;;6099236;23;19972;-79
2022/06/23 01:56:47;;;;;;;;;;;19.40;85.80;;;;;;6123275;23;20321;-79
2022/06/23 01:59:20;;;;;;;;;;;19.40;85.70;;;;;;6020564;23;19921;-80
2022/06/23 02:01:50;;;;;;;;;;;19.40;85.50;;;;;;6099287;23;19929;-79
2022/06/23 02:04:37;;;;;;;;;;;19.40;85.40;;;;;;6098095;23;19972;-79
2022/06/23 02:07:07;;;;;;;;;;;19.40;85.30;;;;;;6099882;23;19976;-79
2022/06/23 02:09:53;;;;;;;;;;;19.40;85.20;;;;;;6110467;23;20334;-79
2022/06/23 02:12:24;;;;;;;;;;;19.40;85.20;;;;;;6110748;23;19928;-78
2022/06/23 02:14:55;;;;;;;;;;;19.40;86.00;;;;;;6115240;23;20234;-79
2022/06/23 02:17:36;;;;;;;;;;;19.30;85.10;;;;;;6094745;23;20342;-79
2022/06/23 02:20:26;;;;;;;;;;;19.30;85.30;;;;;;6111745;23;19973;-80
2022/06/23 02:23:03;;;;;;;;;;;19.30;85.40;;;;;;6072243;23;19921;-80
2022/06/23 02:25:32;;;;;;;;;;;19.30;85.50;;;;;;6074171;23;19960;-79
2022/06/23 02:28:03;;;;;;;;;;;19.30;85.60;;;;;;6094116;23;19977;-81
2022/06/23 02:30:50;;;;;;;;;;;19.30;85.80;;;;;;6092469;23;20352;-80
2022/06/23 02:33:38;;;;;;;;;;;19.30;86.10;;;;;;6060208;23;19931;-79
2022/06/23 02:36:05;;;;;;;;;;;19.20;86.20;;;;;;6084164;23;19921;-79
2022/06/23 02:38:41;;;;;;;;;;;19.20;86.20;;;;;;6118384;23;20302;-79
2022/06/23 02:41:22;;;;;;;;;;;19.20;86.30;;;;;;6068545;23;19921;-79
2022/06/23 02:43:51;;;;;;;;;;;19.20;86.40;;;;;;6094251;23;19929;-81
2022/06/23 02:46:32;;;;;;;;;;;19.20;86.40;;;;;;6069628;23;19952;-79
2022/06/23 02:49:28;;;;;;;;;;;19.20;86.20;;;;;;6118663;23;20370;-82
2022/06/23 02:52:11;;;;;;;;;;;19.20;86.20;;;;;;6097591;23;19925;-83
2022/06/23 02:54:46;;;;;;;;;;;19.20;86.10;;;;;;6098295;23;19921;-82
2022/06/23 02:57:36;;;;;;;;;;;19.20;86.00;;;;;;6098660;23;19925;-83
2022/06/23 03:00:04;;;;;;;;;;;19.20;86.10;;;;;;6096318;23;19925;-80
2022/06/23 03:02:36;;;;;;;;;;;19.20;86.00;;;;;;6087896;23;19921;-80
2022/06/23 03:05:06;;;;;;;;;;;19.10;85.80;;;;;;6097327;23;20326;-80
2022/06/23 03:07:36;;;;;;;;;;;19.20;85.80;;;;;;6098734;23;19921;-81
2022/06/23 03:10:14;;;;;;;;;;;19.10;86.00;;;;;;6122189;23;19928;-81
2022/06/23 03:12:46;;;;;;;;;;;19.00;86.20;;;;;;6097734;23;19944;-81
2022/06/23 03:15:21;;;;;;;;;;;19.10;86.40;;;;;;6116097;23;19925;-80
2022/06/23 03:18:04;;;;;;;;;;;19.10;86.50;;;;;;6094467;23;20265;-79
2022/06/23 03:20:47;;;;;;;;;;;19.00;86.80;;;;;;6099639;23;19921;-79
2022/06/23 03:23:20;;;;;;;;;;;18.90;87.10;;;;;;6097485;23;19978;-81
2022/06/23 03:26:09;;;;;;;;;;;18.90;87.30;;;;;;6084261;23;19921;-80
2022/06/23 03:28:42;;;;;;;;;;;18.90;87.60;;;;;;6105930;23;19929;-81
2022/06/23 03:31:31;;;;;;;;;;;18.90;87.80;;;;;;6112930;23;19956;-80
2022/06/23 03:34:29;;;;;;;;;;;18.80;87.90;;;;;;6125472;23;19940;-80
2022/06/23 03:36:59;;;;;;;;;;;18.90;88.00;;;;;;6096879;23;19921;-80
2022/06/23 03:42:28;;;;;;;;;;;18.80;87.90;;;;;;6113507;23;19921;-80
2022/06/23 03:44:59;;;;;;;;;;;18.80;87.90;;;;;;6112410;23;19945;-80
2022/06/23 03:47:35;;;;;;;;;;;18.80;87.80;;;;;;6101285;23;19927;-79
2022/06/23 03:50:06;;;;;;;;;;;18.80;87.50;;;;;;6112739;23;19988;-80
2022/06/23 03:52:36;;;;;;;;;;;18.80;87.50;;;;;;6070831;23;19925;-79
2022/06/23 03:55:13;;;;;;;;;;;18.80;87.30;;;;;;6095070;23;19977;-79
2022/06/23 03:57:46;;;;;;;;;;;18.80;87.30;;;;;;6094582;23;20341;-81
2022/06/23 04:00:19;;;;;;;;;;;18.70;87.00;;;;;;6095079;23;19928;-80
2022/06/23 04:02:48;;;;;;;;;;;18.70;86.90;;;;;;6094855;23;19921;-79
2022/06/23 04:05:18;;;;;;;;;;;18.70;87.10;;;;;;6095081;23;20274;-80
2022/06/23 04:07:47;;;;;;;;;;;18.60;87.20;;;;;;6094576;23;19980;-81
2022/06/23 04:10:18;;;;;;;;;;;18.60;87.60;;;;;;6070976;23;19926;-80
2022/06/23 04:13:12;;;;;;;;;;;18.60;88.10;;;;;;6123513;23;19952;-80
2022/06/23 04:15:40;;;;;;;;;;;18.60;88.10;;;;;;6112170;23;19941;-81
2022/06/23 04:18:09;;;;;;;;;;;18.60;88.10;;;;;;6087567;23;20258;-81
2022/06/23 04:20:41;;;;;;;;;;;18.60;88.10;;;;;;6114156;23;19945;-80
2022/06/23 04:23:15;;;;;;;;;;;18.50;88.10;;;;;;6099562;23;19975;-80
2022/06/23 04:26:00;;;;;;;;;;;18.60;88.20;;;;;;6112418;23;19921;-80
2022/06/23 04:28:30;;;;;;;;;;;18.60;88.30;;;;;;6087693;23;19921;-80
2022/06/23 04:30:58;;;;;;;;;;;18.60;88.40;;;;;;6112836;23;19949;-81
2022/06/23 04:33:26;;;;;;;;;;;18.60;88.70;;;;;;6098544;23;20000;-80
2022/06/23 04:35:58;;;;;;;;;;;18.60;89.90;;;;;;6114102;23;19922;-80
2022/06/23 04:38:30;;;;;;;;;;;18.60;89.40;;;;;;6098682;23;19925;-81
2022/06/23 04:41:20;;;;;;;;;;;18.60;90.00;;;;;;6100175;23;19921;-81
2022/06/23 04:43:53;;;;;;;;;;;18.60;90.00;;;;;;6101166;23;19921;-81
2022/06/23 04:46:29;;;;;;;;;;;18.70;89.90;;;;;;6112331;23;20339;-80
2022/06/23 04:48:59;;;;;;;;;;;18.70;90.00;;;;;;6094132;23;19929;-81
2022/06/23 04:51:26;;;;;;;;;;;18.80;89.80;;;;;;6076959;23;19972;-80
2022/06/23 04:54:05;;;;;;;;;;;18.80;89.60;;;;;;6117644;23;20673;-81
2022/06/23 04:56:38;;;;;;;;;;;18.90;90.00;;;;;;6094121;23;19993;-81
2022/06/23 04:59:23;;;;;;;;;;;18.90;90.10;;;;;;6070608;23;19921;-80
2022/06/23 05:01:52;;;;;;;;;;;18.90;90.20;;;;;;6105949;23;19948;-80
2022/06/23 05:04:40;;;;;;;;;;;18.90;90.20;;;;;;6095211;23;19996;-80
2022/06/23 05:07:23;;;;;;;;;;;19.00;90.10;;;;;;6095824;23;19921;-82
2022/06/23 05:09:50;;;;;;;;;;;19.00;90.00;;;;;;6093695;23;20342;-82
2022/06/23 05:12:20;;;;;;;;;;;19.10;90.10;;;;;;6095067;23;19922;-82
2022/06/23 05:14:52;;;;;;;;;;;19.10;89.90;;;;;;6094096;23;19921;-82
2022/06/23 05:17:24;;;;;;;;;;;19.20;89.60;;;;;;6094602;23;19929;-83
2022/06/23 05:19:56;;;;;;;;;;;19.20;89.10;;;;;;6095076;23;19921;-82
2022/06/23 05:22:25;;;;;;;;;;;19.30;88.70;;;;;;6094689;23;19988;-83
2022/06/23 05:24:53;;;;;;;;;;;19.40;87.50;;;;;;6093799;23;19921;-82
2022/06/23 05:27:29;;;;;;;;;;;19.50;86.20;;;;;;6094781;23;19921;-83
2022/06/23 05:29:55;;;;;;;;;;;19.60;85.50;;;;;;6093739;23;19925;-82
2022/06/23 05:32:28;;;;;;;;;;;19.70;84.60;;;;;;6119094;23;19925;-82
2022/06/23 05:35:03;;;;;;;;;;;19.70;84.10;;;;;;6118118;23;19921;-82
2022/06/23 05:37:37;;;;;;;;;;;19.80;83.60;;;;;;6095131;23;19921;-82
2022/06/23 05:40:10;;;;;;;;;;;19.90;83.60;;;;;;6093490;23;20010;-83
2022/06/23 05:42:39;;;;;;;;;;;20.00;83.00;;;;;;6119051;23;20331;-81
2022/06/23 05:45:10;;;;;;;;;;;20.00;82.80;;;;;;6093253;23;19996;-82
2022/06/23 05:47:37;;;;;;;;;;;20.10;83.00;;;;;;6070268;23;20397;-82
2022/06/23 05:50:06;;;;;;;;;;;20.20;82.30;;;;;;6093753;23;19922;-82
2022/06/23 05:52:42;;;;;;;;;;;20.20;82.00;;;;;;6094957;23;19921;-81
2022/06/23 05:55:11;;;;;;;;;;;20.20;82.40;;;;;;6117856;23;20279;-81
2022/06/23 05:57:45;;;;;;;;;;;20.30;82.00;;;;;;6118852;23;20346;-82
2022/06/23 06:00:34;;;;;;;;;;;20.40;81.60;;;;;;6123149;23;19921;-82
2022/06/23 06:03:07;;;;;;;;;;;20.50;81.10;;;;;;6110974;23;19998;-82
2022/06/23 06:05:35;;;;;;;;;;;20.50;79.70;;;;;;6113972;23;19925;-81
2022/06/23 06:08:05;;;;;;;;;;;20.60;79.10;;;;;;6096120;23;19929;-82
2022/06/23 06:10:33;;;;;;;;;;;20.70;79.20;;;;;;6114532;23;20298;-82
2022/06/23 06:13:02;;;;;;;;;;;20.80;79.60;;;;;;6095298;23;19921;-81
2022/06/23 06:15:31;;;;;;;;;;;20.80;79.70;;;;;;6115815;23;19976;-82
2022/06/23 06:18:08;;;;;;;;;;;20.90;79.60;;;;;;6094317;23;19921;-81
2022/06/23 06:20:36;;;;;;;;;;;21.00;79.50;;;;;;6114715;23;19968;-82
2022/06/23 06:23:14;;;;;;;;;;;21.10;80.30;;;;;;6095930;23;20306;-82
2022/06/23 06:25:43;;;;;;;;;;;21.20;79.60;;;;;;6113546;23;19927;-82
2022/06/23 06:28:22;;;;;;;;;;;21.30;79.10;;;;;;6122900;23;19988;-82
2022/06/23 06:31:08;;;;;;;;;;;21.30;78.20;;;;;;6111510;23;19925;-82
2022/06/23 06:33:58;;;;;;;;;;;21.40;77.00;;;;;;6118156;23;19921;-82
2022/06/23 06:36:27;;;;;;;;;;;21.50;76.60;;;;;;6091063;23;19921;-82
2022/06/23 06:38:56;;;;;;;;;;;21.70;75.90;;;;;;6114919;23;19925;-82
2022/06/23 06:41:23;;;;;;;;;;;21.70;75.80;;;;;;6095893;23;19925;-82
2022/06/23 06:43:51;;;;;;;;;;;21.80;75.80;;;;;;6115843;23;20254;-82
2022/06/23 06:46:17;;;;;;;;;;;21.90;75.90;;;;;;6094912;23;19921;-82
2022/06/23 06:48:44;;;;;;;;;;;22.00;75.70;;;;;;6116684;23;19997;-82
2022/06/23 06:51:13;;;;;;;;;;;22.10;75.70;;;;;;6093376;23;19992;-80
2022/06/23 06:53:43;;;;;;;;;;;22.20;76.10;;;;;;6117635;23;19921;-81
2022/06/23 06:56:10;;;;;;;;;;;22.30;75.40;;;;;;6119168;23;19925;-82
2022/06/23 06:58:45;;;;;;;;;;;22.40;74.70;;;;;;6074553;23;19925;-81
2022/06/23 07:01:11;;;;;;;;;;;22.50;74.20;;;;;;6112602;23;19921;-81
2022/06/23 07:03:40;;;;;;;;;;;22.60;73.90;;;;;;6071714;23;19926;-81
2022/06/23 07:06:07;;;;;;;;;;;22.80;74.50;;;;;;6096056;23;19929;-81
2022/06/23 07:08:34;;;;;;;;;;;22.90;73.20;;;;;;6119605;23;20305;-81
2022/06/23 07:11:13;;;;;;;;;;;23.00;72.60;;;;;;6120323;23;19929;-81
2022/06/23 07:13:48;;;;;;;;;;;23.10;72.40;;;;;;6099992;23;19932;-81
2022/06/23 07:16:18;;;;;;;;;;;23.20;72.50;;;;;;6112014;23;19945;-81
2022/06/23 07:19:14;;;;;;;;;;;23.30;72.10;;;;;;6119317;23;19973;-81
2022/06/23 07:21:41;;;;;;;;;;;23.50;70.90;;;;;;6087834;23;19924;-81
2022/06/23 07:24:12;;;;;;;;;;;23.60;70.30;;;;;;6100578;23;19920;-81
2022/06/23 07:26:45;;;;;;;;;;;23.80;70.00;;;;;;6112021;23;19920;-82
2022/06/23 07:29:35;;;;;;;;;;;23.90;69.30;;;;;;6100588;23;20342;-81
2022/06/23 07:32:20;;;;;;;;;;;24.00;68.40;;;;;;6100032;23;19972;-81
2022/06/23 07:34:51;;;;;;;;;;;24.20;68.40;;;;;;6100121;23;19920;-81
2022/06/23 07:37:25;;;;;;;;;;;24.30;64.80;;;;;;6116580;23;19972;-81
2022/06/23 07:39:57;;;;;;;;;;;24.50;64.90;;;;;;6097605;23;19987;-80
2022/06/23 07:42:44;;;;;;;;;;;24.60;63.80;;;;;;6115259;23;20447;-81
2022/06/23 07:45:21;;;;;;;;;;;24.70;64.50;;;;;;6099749;23;19925;-81
2022/06/23 07:47:48;;;;;;;;;;;24.80;65.00;;;;;;6111611;23;19937;-81
2022/06/23 07:50:15;;;;;;;;;;;24.80;64.60;;;;;;6117271;23;19922;-81
2022/06/23 07:52:43;;;;;;;;;;;24.90;64.30;;;;;;6094429;23;20301;-81
2022/06/23 07:55:17;;;;;;;;;;;25.10;64.40;;;;;;6111488;23;19921;-80
2022/06/23 07:58:03;;;;;;;;;;;25.20;62.90;;;;;;6111443;23;19925;-81
2022/06/23 08:00:31;;;;;;;;;;;25.40;62.60;;;;;;6116265;23;19929;-81
2022/06/23 08:03:01;;;;;;;;;;;25.50;63.40;;;;;;6096833;23;19976;-81
2022/06/23 08:05:36;;;;;;;;;;;25.70;62.80;;;;;;6125965;23;20334;-80
2022/06/23 08:08:04;;;;;;;;;;;25.90;63.40;;;;;;6125465;23;19925;-80
2022/06/23 08:10:31;;;;;;;;;;;26.00;61.70;;;;;;6116448;23;19921;-81
2022/06/23 08:13:00;;;;;;;;;;;26.10;62.40;;;;;;6096208;23;20338;-81
2022/06/23 08:18:26;;;;;;;;;;;26.50;61.60;;;;;;6113076;23;19921;-81
2022/06/23 08:20:58;;;;;;;;;;;26.60;60.80;;;;;;6111590;23;19929;-80
2022/06/23 08:23:26;;;;;;;;;;;26.80;60.80;;;;;;6118070;23;19921;-81
2022/06/23 08:25:53;;;;;;;;;;;26.90;60.60;;;;;;6094692;23;19921;-81
2022/06/23 08:28:20;;;;;;;;;;;27.10;60.20;;;;;;6119054;23;20266;-82
2022/06/23 08:30:54;;;;;;;;;;;27.30;58.80;;;;;;6095861;23;19944;-80
2022/06/23 08:33:21;;;;;;;;;;;27.50;58.00;;;;;;6106349;23;20005;-81
2022/06/23 08:35:50;;;;;;;;;;;27.60;57.20;;;;;;6105906;23;19921;-81
2022/06/23 08:38:26;;;;;;;;;;;27.70;58.40;;;;;;6111618;23;19925;-81
2022/06/23 08:41:12;;;;;;;;;;;27.90;58.70;;;;;;6098927;23;19924;-81
2022/06/23 08:43:48;;;;;;;;;;;28.10;57.40;;;;;;6095207;23;19959;-81
2022/06/23 08:46:23;;;;;;;;;;;28.20;55.40;;;;;;6094049;23;19928;-81
2022/06/23 08:48:59;;;;;;;;;;;28.30;56.00;;;;;;6071398;23;19925;-81
2022/06/23 08:51:49;;;;;;;;;;;28.40;53.00;;;;;;6124749;23;19920;-81
2022/06/23 08:54:36;;;;;;;;;;;28.50;52.80;;;;;;6111742;23;20402;-81
2022/06/23 08:57:08;;;;;;;;;;;28.40;54.00;;;;;;6110979;23;20349;-81
2022/06/23 08:59:55;;;;;;;;;;;28.50;54.30;;;;;;6125696;23;19921;-81
2022/06/23 09:02:41;;;;;;;;;;;28.50;52.10;;;;;;6124901;23;19960;-81
2022/06/23 09:05:32;;;;;;;;;;;28.40;52.90;;;;;;6102343;23;19941;-80
2022/06/23 09:08:14;;;;;;;;;;;28.40;52.80;;;;;;6112883;23;19925;-81
2022/06/23 09:10:47;;;;;;;;;;;28.50;53.00;;;;;;6098988;23;19924;-81
2022/06/23 09:13:14;;;;;;;;;;;28.60;53.00;;;;;;6125391;23;19925;-81
2022/06/23 09:15:59;;;;;;;;;;;28.70;51.70;;;;;;6099120;23;20241;-83
2022/06/23 09:18:45;;;;;;;;;;;28.80;52.50;;;;;;6099374;23;20378;-81
2022/06/23 09:21:28;;;;;;;;;;;28.90;52.50;;;;;;6112841;23;19926;-81
2022/06/23 09:24:19;;;;;;;;;;;28.90;52.70;;;;;;6093867;23;19925;-81
2022/06/23 09:27:12;;;;;;;;;;;29.00;53.10;;;;;;6071583;23;19925;-80
2022/06/23 09:29:51;;;;;;;;;;;29.10;50.40;;;;;;6076356;23;19921;-81
2022/06/23 09:32:36;;;;;;;;;;;29.10;51.40;;;;;;6099445;23;19940;-81
2022/06/23 09:35:18;;;;;;;;;;;29.10;51.60;;;;;;6098484;23;19944;-81
2022/06/23 09:37:54;;;;;;;;;;;29.10;50.90;;;;;;6097864;23;19925;-81
2022/06/23 09:40:21;;;;;;;;;;;29.20;51.10;;;;;;6125007;23;19948;-80
2022/06/23 09:43:12;;;;;;;;;;;29.40;51.70;;;;;;6098694;23;19925;-80
2022/06/23 09:46:02;;;;;;;;;;;29.50;51.70;;;;;;6106171;23;20343;-80
2022/06/23 09:48:47;;;;;;;;;;;29.40;49.60;;;;;;6078170;23;19933;-80
2022/06/23 09:51:18;;;;;;;;;;;29.20;50.60;;;;;;6064882;23;19969;-80
2022/06/23 09:54:03;;;;;;;;;;;29.10;52.00;;;;;;6064968;23;19928;-80
2022/06/23 09:56:47;;;;;;;;;;;28.80;51.50;;;;;;6064665;23;20398;-81
2022/06/23 09:59:16;;;;;;;;;;;28.60;52.80;;;;;;6088623;23;19983;-80
2022/06/23 10:01:59;;;;;;;;;;;28.40;53.80;;;;;;6073185;23;19933;-80
2022/06/23 10:04:48;;;;;;;;;;;28.50;55.20;;;;;;6076835;23;19928;-80
2022/06/23 10:07:21;;;;;;;;;;;28.70;53.30;;;;;;6065833;23;19973;-81
2022/06/23 10:09:51;;;;;;;;;;;28.80;54.20;;;;;;6066462;23;19986;-81
2022/06/23 10:12:47;;;;;;;;;;;29.00;52.10;;;;;;6066853;23;19983;-80
2022/06/23 10:15:31;;;;;;;;;;;29.00;53.20;;;;;;6094386;23;20338;-81
2022/06/23 10:18:01;;;;;;;;;;;29.10;52.80;;;;;;6089159;23;20295;-80
2022/06/23 10:20:46;;;;;;;;;;;29.00;52.40;;;;;;6068867;23;19922;-80
2022/06/23 10:23:17;;;;;;;;;;;29.10;53.70;;;;;;6076348;23;19926;-80
2022/06/23 10:25:46;;;;;;;;;;;29.10;52.00;;;;;;6065234;23;19921;-80
2022/06/23 10:28:33;;;;;;;;;;;29.10;51.90;;;;;;6077011;23;20349;-80
2022/06/23 10:31:26;;;;;;;;;;;29.00;52.50;;;;;;6088649;23;19925;-80
2022/06/23 10:33:53;;;;;;;;;;;28.90;52.50;;;;;;6063313;23;19922;-80
2022/06/23 10:36:32;;;;;;;;;;;28.80;52.80;;;;;;6066458;23;19922;-80
2022/06/23 10:39:18;;;;;;;;;;;28.70;52.50;;;;;;6078874;23;19973;-80
2022/06/23 10:41:45;;;;;;;;;;;28.50;53.20;;;;;;6066390;23;19922;-80
2022/06/23 10:44:18;;;;;;;;;;;28.40;53.50;;;;;;6070039;23;19921;-80
2022/06/23 10:47:08;;;;;;;;;;;28.20;55.10;;;;;;6071108;23;19921;-80
2022/06/23 10:49:51;;;;;;;;;;;28.10;55.80;;;;;;6068460;23;19925;-80
2022/06/23 10:52:24;;;;;;;;;;;27.90;57.20;;;;;;6124478;23;19972;-80
2022/06/23 10:55:00;;;;;;;;;;;27.70;58.40;;;;;;6101081;23;19925;-80
2022/06/23 10:57:40;;;;;;;;;;;27.60;56.80;;;;;;6100599;23;19976;-80
2022/06/23 11:00:07;;;;;;;;;;;27.50;57.70;;;;;;6112158;23;19933;-80
2022/06/23 11:02:34;;;;;;;;;;;27.40;57.70;;;;;;6100954;23;19929;-80
2022/06/23 11:05:15;;;;;;;;;;;27.40;58.00;;;;;;6100812;23;20369;-80
2022/06/23 11:08:00;;;;;;;;;;;27.30;56.80;;;;;;6095391;23;19921;-80
2022/06/23 11:10:45;;;;;;;;;;;27.40;56.40;;;;;;6073080;23;20292;-80
2022/06/23 11:13:36;;;;;;;;;;;27.40;56.20;;;;;;6100820;23;19924;-80
2022/06/23 11:16:09;;;;;;;;;;;27.40;57.10;;;;;;6099634;23;19931;-81
2022/06/23 11:18:41;;;;;;;;;;;27.60;57.70;;;;;;6126229;23;19929;-80
2022/06/23 11:21:28;;;;;;;;;;;27.70;57.80;;;;;;6100058;23;19924;-80
2022/06/23 11:24:00;;;;;;;;;;;27.70;55.90;;;;;;6076235;23;19921;-80
2022/06/23 11:26:37;;;;;;;;;;;27.80;56.30;;;;;;6126152;23;19928;-81
2022/06/23 11:29:10;;;;;;;;;;;27.80;56.90;;;;;;6125018;23;19932;-80
2022/06/23 11:31:49;;;;;;;;;;;27.80;55.80;;;;;;6100724;23;19921;-81
2022/06/23 11:34:16;;;;;;;;;;;27.90;56.60;;;;;;6123764;23;20400;-80
2022/06/23 11:37:01;;;;;;;;;;;27.80;55.80;;;;;;6100590;23;19984;-80
2022/06/23 11:39:40;;;;;;;;;;;27.80;57.10;;;;;;6124448;23;20468;-80
2022/06/23 11:42:19;;;;;;;;;;;27.80;56.40;;;;;;6098928;23;19929;-80
2022/06/23 11:45:05;;;;;;;;;;;27.80;57.20;;;;;;6094545;23;20258;-80
2022/06/23 11:47:42;;;;;;;;;;;27.80;57.40;;;;;;6083241;23;19976;-80
2022/06/23 11:50:17;;;;;;;;;;;27.90;57.10;;;;;;6119346;23;19976;-81
2022/06/23 11:53:03;;;;;;;;;;;27.90;57.30;;;;;;6119026;23;19927;-80
2022/06/23 11:55:36;;;;;;;;;;;27.90;57.70;;;;;;6118729;23;19922;-80
2022/06/23 11:58:07;;;;;;;;;;;28.10;56.80;;;;;;6119702;23;19928;-80
2022/06/23 12:00:40;;;;;;;;;;;28.00;57.00;;;;;;6094493;23;20330;-80
2022/06/23 12:03:21;;;;;;;;;;;28.10;56.90;;;;;;6095133;23;19925;-80
2022/06/23 12:06:18;;;;;;;;;;;28.20;57.30;;;;;;6117540;23;20000;-80
2022/06/23 12:08:57;;;;;;;;;;;28.40;56.80;;;;;;6041173;23;19921;-80
2022/06/23 12:11:25;;;;;;;;;;;28.40;56.00;;;;;;6094576;23;19925;-80
2022/06/23 12:13:52;;;;;;;;;;;28.50;55.70;;;;;;6118855;23;19921;-80
2022/06/23 12:16:19;;;;;;;;;;;28.40;54.90;;;;;;6118938;23;19925;-80
2022/06/23 12:18:47;;;;;;;;;;;28.40;55.10;;;;;;6118214;23;19952;-80
2022/06/23 12:21:30;;;;;;;;;;;28.40;55.80;;;;;;6095020;23;20346;-80
2022/06/23 12:24:03;;;;;;;;;;;28.40;55.60;;;;;;6094344;23;19921;-80
2022/06/23 12:26:42;;;;;;;;;;;28.50;55.20;;;;;;6119675;23;19921;-80
2022/06/23 12:29:17;;;;;;;;;;;28.40;55.00;;;;;;6089333;23;19973;-80
2022/06/23 12:31:50;;;;;;;;;;;28.50;54.40;;;;;;6114236;23;19928;-80
2022/06/23 12:34:19;;;;;;;;;;;28.50;54.10;;;;;;6082790;23;20254;-80
2022/06/23 12:37:09;;;;;;;;;;;28.50;54.70;;;;;;6094846;23;19981;-81
2022/06/23 12:39:44;;;;;;;;;;;28.60;55.10;;;;;;6087096;23;19921;-80
2022/06/23 12:42:18;;;;;;;;;;;28.60;54.30;;;;;;6119067;23;20339;-80
2022/06/23 12:44:51;;;;;;;;;;;28.70;55.10;;;;;;6105752;23;19921;-80
2022/06/23 12:47:18;;;;;;;;;;;28.80;54.60;;;;;;6112894;23;19956;-80
2022/06/23 12:49:48;;;;;;;;;;;28.90;55.10;;;;;;6098442;23;20293;-80
2022/06/23 12:52:14;;;;;;;;;;;29.10;55.00;;;;;;6100307;23;19967;-80
2022/06/23 12:55:00;;;;;;;;;;;29.30;54.30;;;;;;6099308;23;19949;-80
2022/06/23 12:57:56;;;;;;;;;;;29.40;53.20;;;;;;6099229;23;19928;-80
2022/06/23 13:00:38;;;;;;;;;;;29.80;53.20;;;;;;6069365;23;20306;-80
2022/06/23 13:03:23;;;;;;;;;;;30.40;51.70;;;;;;6099463;23;19921;-80
2022/06/23 13:05:55;;;;;;;;;;;30.70;50.80;;;;;;6124927;23;19972;-80
2022/06/23 13:08:25;;;;;;;;;;;30.90;49.50;;;;;;6112343;23;19952;-80
2022/06/23 13:10:55;;;;;;;;;;;30.90;48.60;;;;;;6069939;23;19957;-80
2022/06/23 13:13:44;;;;;;;;;;;30.80;48.50;;;;;;6118686;23;19976;-80
2022/06/23 13:16:15;;;;;;;;;;;30.60;48.80;;;;;;6124289;23;20286;-80
2022/06/23 13:18:44;;;;;;;;;;;30.60;49.40;;;;;;6112327;23;19921;-80
2022/06/23 13:21:13;;;;;;;;;;;30.50;49.50;;;;;;6087064;23;19928;-80
2022/06/23 13:23:45;;;;;;;;;;;30.30;49.30;;;;;;6112571;23;20006;-80
2022/06/23 13:26:15;;;;;;;;;;;30.10;49.80;;;;;;6069883;23;19944;-80
2022/06/23 13:28:44;;;;;;;;;;;30.00;51.20;;;;;;6118734;23;19926;-80
2022/06/23 13:31:32;;;;;;;;;;;29.80;51.50;;;;;;6093106;23;19925;-80
2022/06/23 13:34:07;;;;;;;;;;;29.80;51.40;;;;;;6117167;23;19925;-80
2022/06/23 13:36:39;;;;;;;;;;;29.70;51.70;;;;;;6094458;23;19925;-80
2022/06/23 13:39:12;;;;;;;;;;;29.70;51.80;;;;;;6117524;23;19921;-80
2022/06/23 13:41:46;;;;;;;;;;;29.70;51.50;;;;;;6095647;23;19926;-80
2022/06/23 13:44:18;;;;;;;;;;;29.80;52.00;;;;;;6093207;23;19945;-80
2022/06/23 13:46:51;;;;;;;;;;;30.10;52.10;;;;;;6070265;23;19968;-80
2022/06/23 13:49:19;;;;;;;;;;;30.40;50.50;;;;;;6093612;23;19929;-80
2022/06/23 13:51:46;;;;;;;;;;;30.70;49.50;;;;;;6094131;23;19928;-80
2022/06/23 13:54:32;;;;;;;;;;;30.90;48.80;;;;;;6117309;23;19929;-80
2022/06/23 13:57:05;;;;;;;;;;;31.20;48.40;;;;;;6117079;23;20008;-80
2022/06/23 13:59:35;;;;;;;;;;;31.50;48.70;;;;;;6094785;23;19925;-80
2022/06/23 14:02:17;;;;;;;;;;;31.90;46.10;;;;;;6117463;23;20306;-80
2022/06/23 14:04:50;;;;;;;;;;;32.00;45.00;;;;;;6117888;23;19945;-81
2022/06/23 14:07:25;;;;;;;;;;;31.80;44.20;;;;;;6117586;23;19928;-80
2022/06/23 14:10:12;;;;;;;;;;;31.80;45.20;;;;;;6093678;23;20367;-80
2022/06/23 14:12:57;;;;;;;;;;;31.80;44.30;;;;;;6093076;23;19953;-80
2022/06/23 14:15:33;;;;;;;;;;;31.60;44.00;;;;;;6093160;23;19921;-80
2022/06/23 14:18:07;;;;;;;;;;;31.60;45.50;;;;;;6118576;23;19977;-80
2022/06/23 14:20:53;;;;;;;;;;;31.50;44.80;;;;;;6093210;23;19929;-80
2022/06/23 14:23:27;;;;;;;;;;;31.40;46.00;;;;;;6093230;23;20339;-80
2022/06/23 14:25:58;;;;;;;;;;;31.60;47.30;;;;;;6093813;23;19925;-81
2022/06/23 14:28:27;;;;;;;;;;;31.70;46.40;;;;;;6093019;23;19969;-80
2022/06/23 14:31:14;;;;;;;;;;;31.80;45.60;;;;;;6118223;23;19925;-81
2022/06/23 14:33:44;;;;;;;;;;;32.10;44.80;;;;;;6074159;23;19925;-81
2022/06/23 14:36:29;;;;;;;;;;;32.40;44.90;;;;;;6124665;23;20363;-81
2022/06/23 14:39:10;;;;;;;;;;;32.60;43.90;;;;;;6098451;23;19925;-81
2022/06/23 14:41:46;;;;;;;;;;;32.70;44.80;;;;;;6097170;23;20239;-81
2022/06/23 14:44:20;;;;;;;;;;;33.00;44.80;;;;;;6094338;23;19972;-80
2022/06/23 14:47:04;;;;;;;;;;;33.20;43.30;;;;;;6069226;23;19921;-81
2022/06/23 14:49:31;;;;;;;;;;;33.20;44.50;;;;;;6094090;23;19929;-81
2022/06/23 14:52:04;;;;;;;;;;;33.50;44.10;;;;;;6105080;23;19928;-81
2022/06/23 14:54:43;;;;;;;;;;;33.50;42.90;;;;;;6070122;23;19989;-81
2022/06/23 14:57:16;;;;;;;;;;;33.40;43.80;;;;;;6098014;23;19968;-80
2022/06/23 14:59:50;;;;;;;;;;;33.30;43.80;;;;;;6099389;23;19960;-80
2022/06/23 15:02:29;;;;;;;;;;;33.10;43.50;;;;;;6123843;23;19925;-81
2022/06/23 15:05:14;;;;;;;;;;;32.60;44.30;;;;;;6098263;23;19971;-80
2022/06/23 15:07:45;;;;;;;;;;;32.20;45.80;;;;;;6098433;23;19921;-80
2022/06/23 15:10:17;;;;;;;;;;;32.00;46.70;;;;;;6093149;23;19921;-81